Time;durP1;ratioP1;P1;durP2;ratioP2;P2;SDS_P1;SDS_P2;PMS_P1;PMS_P2;Temp;Humidity;BMP_temperature;BMP_pressure;BME280_temperature;BME280_humidity;BME280_pressure;Samples;Min_cycle;Max_cycle;Signal;HPM_P1;HPM_P2
2023/04/13 00:00:16;;;;;;;5.68;1.20;;;7.70;99.90;;;;;;5010523;28;20029;-49
2023/04/13 00:02:42;;;;;;;6.20;1.30;;;7.70;99.90;;;;;;5010647;28;20025;-51
2023/04/13 00:05:09;;;;;;;11.50;2.45;;;7.70;99.90;;;;;;5010575;28;20029;-48
2023/04/13 00:07:39;;;;;;;4.80;1.27;;;7.60;99.90;;;;;;5010485;28;20020;-51
2023/04/13 00:10:08;;;;;;;7.60;1.42;;;7.60;99.90;;;;;;5010535;28;20093;-50
2023/04/13 00:12:35;;;;;;;8.60;1.35;;;7.60;99.90;;;;;;5010254;28;20032;-46
2023/04/13 00:15:04;;;;;;;7.78;1.55;;;7.60;99.90;;;;;;5010202;28;20488;-47
2023/04/13 00:17:32;;;;;;;6.30;1.42;;;7.50;99.90;;;;;;5010565;28;20030;-47
2023/04/13 00:20:07;;;;;;;8.00;1.42;;;7.40;99.90;;;;;;5010378;28;20486;-48
2023/04/13 00:22:33;;;;;;;7.28;1.40;;;7.40;99.90;;;;;;5010257;28;20242;-54
2023/04/13 00:24:58;;;;;;;9.25;1.40;;;7.30;99.90;;;;;;5010440;28;20384;-47
2023/04/13 00:27:29;;;;;;;6.95;1.38;;;7.30;99.90;;;;;;5008848;28;20026;-53
2023/04/13 00:29:55;;;;;;;10.75;2.08;;;7.20;99.90;;;;;;5009921;28;20065;-53
2023/04/13 00:32:21;;;;;;;4.80;1.55;;;7.20;99.90;;;;;;5010157;28;20058;-52
2023/04/13 00:34:47;;;;;;;7.93;1.60;;;7.20;99.90;;;;;;5009662;28;20057;-57
2023/04/13 00:37:13;;;;;;;5.60;1.45;;;7.10;99.90;;;;;;5009252;28;20026;-48
2023/04/13 00:39:39;;;;;;;10.10;1.63;;;7.10;99.90;;;;;;5009519;28;20080;-48
2023/04/13 00:42:07;;;;;;;6.78;1.48;;;7.20;99.90;;;;;;5009317;28;20040;-53
2023/04/13 00:44:33;;;;;;;8.77;1.40;;;7.20;99.90;;;;;;5012138;28;20041;-50
2023/04/13 00:47:01;;;;;;;8.65;1.63;;;7.10;99.90;;;;;;5012256;28;20022;-46
2023/04/13 00:49:29;;;;;;;6.80;1.80;;;7.10;99.90;;;;;;5012822;28;20045;-55
2023/04/13 00:51:55;;;;;;;6.57;1.75;;;7.10;99.90;;;;;;5013444;28;20021;-48
2023/04/13 00:54:21;;;;;;;8.95;1.83;;;7.10;99.90;;;;;;5012759;28;20115;-55
2023/04/13 00:56:47;;;;;;;9.05;1.73;;;7.10;99.90;;;;;;5012257;28;20042;-55
2023/04/13 00:59:14;;;;;;;10.65;2.00;;;7.20;99.90;;;;;;5012551;28;20061;-50
2023/04/13 01:01:49;;;;;;;6.43;1.20;;;7.20;99.90;;;;;;5012912;28;20076;-53
2023/04/13 01:04:18;;;;;;;8.85;1.80;;;7.20;99.90;;;;;;5012859;28;20033;-51
2023/04/13 01:07:16;;;;;;;14.23;2.25;;;7.20;99.90;;;;;;5013220;28;20540;-48
2023/04/13 01:09:55;;;;;;;7.03;2.03;;;7.10;99.90;;;;;;4997539;28;20042;-50
2023/04/13 01:12:39;;;;;;;10.87;2.50;;;7.10;99.90;;;;;;5012443;28;20054;-51
2023/04/13 01:15:10;;;;;;;11.65;2.45;;;7.10;99.90;;;;;;5012963;28;20093;-52
2023/04/13 01:17:37;;;;;;;13.20;2.08;;;7.10;99.90;;;;;;5012725;28;20034;-50
2023/04/13 01:20:12;;;;;;;8.30;1.58;;;7.10;99.90;;;;;;5013091;28;20469;-50
2023/04/13 01:22:54;;;;;;;8.43;1.60;;;7.10;99.90;;;;;;5012915;28;20037;-49
2023/04/13 01:25:21;;;;;;;8.63;1.77;;;7.00;99.90;;;;;;5013064;28;20029;-46
2023/04/13 01:27:53;;;;;;;12.07;1.80;;;7.00;99.90;;;;;;5012581;28;20111;-47
2023/04/13 01:30:23;;;;;;;13.10;2.42;;;6.90;99.90;;;;;;5012713;28;20050;-47
2023/04/13 01:32:51;;;;;;;12.18;2.17;;;6.90;99.90;;;;;;5012873;28;20041;-48
2023/04/13 01:35:18;;;;;;;12.77;1.73;;;6.90;99.90;;;;;;5012811;28;20029;-50
2023/04/13 01:37:45;;;;;;;8.48;1.77;;;6.90;99.90;;;;;;5012796;28;20026;-50
2023/04/13 01:40:12;;;;;;;8.70;1.63;;;6.90;99.90;;;;;;5012850;28;20014;-47
2023/04/13 01:42:42;;;;;;;18.20;1.98;;;6.90;99.90;;;;;;5012144;28;20100;-46
2023/04/13 01:45:10;;;;;;;;;;;6.90;99.90;;;;;;5011642;28;20041;-50
2023/04/13 01:47:40;;;;;;;12.93;2.38;;;6.90;99.90;;;;;;5011859;28;19917;-46
2023/04/13 01:50:15;;;;;;;19.02;2.33;;;6.80;99.90;;;;;;5012314;28;20109;-46
2023/04/13 01:52:42;;;;;;;10.98;2.25;;;6.80;99.90;;;;;;5012605;28;20045;-54
2023/04/13 01:55:11;;;;;;;8.27;1.65;;;6.80;99.90;;;;;;5012460;28;20128;-52
2023/04/13 01:57:39;;;;;;;10.00;1.73;;;6.80;99.90;;;;;;5011906;28;20050;-46
2023/04/13 02:00:10;;;;;;;12.05;2.13;;;6.80;99.90;;;;;;5012112;28;20038;-48
2023/04/13 02:02:36;;;;;;;11.52;1.88;;;6.80;99.90;;;;;;5012307;28;20529;-48
2023/04/13 02:05:02;;;;;;;12.55;2.53;;;6.80;99.90;;;;;;5011468;28;20117;-50
2023/04/13 02:07:28;;;;;;;13.80;2.38;;;6.80;99.90;;;;;;5012192;28;20089;-53
2023/04/13 02:09:54;;;;;;;11.45;1.85;;;6.70;99.90;;;;;;5012108;28;20041;-55
2023/04/13 02:12:19;;;;;;;11.25;1.60;;;6.70;99.90;;;;;;5010909;28;20014;-50
2023/04/13 02:14:45;;;;;;;10.65;2.25;;;6.70;99.90;;;;;;5011657;28;20030;-51
2023/04/13 02:17:11;;;;;;;13.65;2.20;;;6.70;99.90;;;;;;5012103;28;20033;-50
2023/04/13 02:19:37;;;;;;;11.88;1.95;;;6.70;99.90;;;;;;5012197;28;20096;-51
2023/04/13 02:22:02;;;;;;;17.52;2.10;;;6.70;99.90;;;;;;5012320;28;20047;-51
2023/04/13 02:24:29;;;;;;;9.63;1.60;;;6.70;99.90;;;;;;5012032;28;20061;-48
2023/04/13 02:26:55;;;;;;;10.70;1.65;;;6.70;99.90;;;;;;5011958;28;20477;-47
2023/04/13 02:29:21;;;;;;;12.77;2.00;;;6.70;99.90;;;;;;5011801;28;20124;-47
2023/04/13 02:31:47;;;;;;;9.98;1.90;;;6.60;99.90;;;;;;5012259;28;20045;-54
2023/04/13 02:34:13;;;;;;;9.82;2.05;;;6.70;99.90;;;;;;5011631;28;20108;-47
2023/04/13 02:36:39;;;;;;;8.00;1.90;;;6.60;99.90;;;;;;5011792;28;20109;-49
2023/04/13 02:39:05;;;;;;;7.70;1.45;;;6.60;99.90;;;;;;5011239;28;20473;-48
2023/04/13 02:41:30;;;;;;;11.27;1.60;;;6.60;99.90;;;;;;5011038;28;20193;-49
2023/04/13 02:43:56;;;;;;;19.88;2.35;;;6.60;99.90;;;;;;5009312;28;20052;-49
2023/04/13 02:46:22;;;;;;;15.32;1.58;;;6.50;99.90;;;;;;5010310;28;20105;-51
2023/04/13 02:48:48;;;;;;;7.88;1.38;;;6.50;99.90;;;;;;5011597;28;20038;-51
2023/04/13 02:51:13;;;;;;;6.25;1.48;;;6.50;99.90;;;;;;5011653;28;20208;-48
2023/04/13 02:53:39;;;;;;;13.70;1.92;;;6.50;99.90;;;;;;5011581;28;20030;-49
2023/04/13 02:56:05;;;;;;;9.30;2.20;;;6.50;99.90;;;;;;5011058;28;20101;-49
2023/04/13 02:58:31;;;;;;;8.23;1.65;;;6.40;99.90;;;;;;5011277;28;20088;-48
2023/04/13 03:00:57;;;;;;;12.98;2.00;;;6.40;99.90;;;;;;5010632;28;20385;-49
2023/04/13 03:03:23;;;;;;;10.40;1.70;;;6.40;99.90;;;;;;5011240;28;20164;-55
2023/04/13 03:05:50;;;;;;;10.57;1.63;;;6.40;99.90;;;;;;5010735;28;20029;-52
2023/04/13 03:08:16;;;;;;;12.15;1.80;;;6.30;99.90;;;;;;5011122;28;20099;-50
2023/04/13 03:10:43;;;;;;;5.60;1.42;;;6.30;99.90;;;;;;5011265;28;20116;-49
2023/04/13 03:13:09;;;;;;;10.25;1.75;;;6.30;99.90;;;;;;5011042;28;20053;-53
2023/04/13 03:15:35;;;;;;;10.07;1.67;;;6.20;99.90;;;;;;5009267;28;20504;-48
2023/04/13 03:18:02;;;;;;;8.98;1.60;;;6.10;99.90;;;;;;5009989;28;20065;-48
2023/04/13 03:20:28;;;;;;;12.48;1.98;;;6.10;99.90;;;;;;5011178;28;20041;-51
2023/04/13 03:22:55;;;;;;;12.52;1.60;;;6.10;99.90;;;;;;5011051;28;20030;-50
2023/04/13 03:25:21;;;;;;;9.68;1.83;;;6.10;99.90;;;;;;5011136;28;20385;-48
2023/04/13 03:27:47;;;;;;;12.15;2.33;;;6.10;99.90;;;;;;5010520;28;20034;-51
2023/04/13 03:30:12;;;;;;;12.68;1.92;;;6.10;99.90;;;;;;5011111;28;20495;-48
2023/04/13 03:32:38;;;;;;;7.38;1.60;;;6.10;99.90;;;;;;5011088;28;20028;-52
2023/04/13 03:35:04;;;;;;;17.65;1.80;;;6.10;99.90;;;;;;5011080;28;20488;-51
2023/04/13 03:37:33;;;;;;;9.95;1.70;;;6.10;99.90;;;;;;5011045;28;20036;-53
2023/04/13 03:39:59;;;;;;;11.63;1.55;;;6.20;99.90;;;;;;5011020;28;21752;-49
2023/04/13 03:42:24;;;;;;;13.55;1.73;;;6.20;99.90;;;;;;5010194;28;20033;-55
2023/04/13 03:44:50;;;;;;;8.75;1.65;;;6.10;99.90;;;;;;5010523;28;20092;-52
2023/04/13 03:47:16;;;;;;;11.18;1.88;;;6.10;99.90;;;;;;5010753;28;20030;-52
2023/04/13 03:49:41;;;;;;;8.90;1.88;;;6.10;99.90;;;;;;5010696;28;20481;-52
2023/04/13 03:52:07;;;;;;;11.80;2.55;;;6.10;99.90;;;;;;5009938;28;20029;-49
2023/04/13 03:54:32;;;;;;;11.60;1.67;;;6.00;99.90;;;;;;5010522;28;20026;-52
2023/04/13 03:56:59;;;;;;;13.35;2.38;;;6.00;99.90;;;;;;5010389;28;20054;-52
2023/04/13 03:59:25;;;;;;;8.57;1.75;;;5.90;99.90;;;;;;5011056;28;20120;-51
2023/04/13 04:01:51;;;;;;;10.68;1.73;;;5.90;99.90;;;;;;5011128;28;20104;-53
2023/04/13 04:04:16;;;;;;;16.08;1.90;;;5.80;99.90;;;;;;5010496;28;20453;-51
2023/04/13 04:06:42;;;;;;;8.77;1.63;;;5.80;99.90;;;;;;5010549;28;20026;-48
2023/04/13 04:09:09;;;;;;;17.17;2.33;;;5.80;99.90;;;;;;5010207;28;20038;-48
2023/04/13 04:11:34;;;;;;;14.57;2.10;;;5.70;99.90;;;;;;5010082;28;20014;-50
2023/04/13 04:14:00;;;;;;;10.60;1.80;;;5.70;99.90;;;;;;5010498;28;20444;-48
2023/04/13 04:16:26;;;;;;;12.80;1.88;;;5.70;99.90;;;;;;5010597;28;20438;-48
2023/04/13 04:18:51;;;;;;;12.18;2.03;;;5.60;99.90;;;;;;5013831;28;20068;-54
2023/04/13 04:21:20;;;;;;;13.77;2.20;;;5.70;99.90;;;;;;5013958;28;20021;-48
2023/04/13 04:23:46;;;;;;;10.43;1.77;;;5.70;99.90;;;;;;5014301;28;20026;-47
2023/04/13 04:26:14;;;;;;;11.10;2.08;;;5.70;99.90;;;;;;5013883;28;20036;-51
2023/04/13 04:28:40;;;;;;;19.52;2.50;;;5.70;99.90;;;;;;5014156;28;20108;-47
2023/04/13 04:31:09;;;;;;;12.40;1.90;;;5.70;99.90;;;;;;5014213;28;20030;-51
2023/04/13 04:33:37;;;;;;;16.55;2.25;;;5.70;99.90;;;;;;5014245;28;20026;-51
2023/04/13 04:36:08;;;;;;;14.63;2.78;;;5.70;99.90;;;;;;5014107;28;20338;-48
2023/04/13 04:38:34;;;;;;;10.32;1.58;;;5.70;99.90;;;;;;5014059;28;20018;-49
2023/04/13 04:41:00;;;;;;;15.70;2.30;;;5.60;99.90;;;;;;5012766;28;20021;-48
2023/04/13 04:43:28;;;;;;;11.13;1.98;;;5.60;99.90;;;;;;5005203;28;20022;-49
2023/04/13 04:45:56;;;;;;;17.13;2.00;;;5.60;99.90;;;;;;5014088;28;20022;-55
2023/04/13 04:48:23;;;;;;;14.55;2.28;;;5.70;99.90;;;;;;5012938;28;20439;-52
2023/04/13 04:50:51;;;;;;;10.07;1.88;;;5.50;99.90;;;;;;5013564;28;20021;-49
2023/04/13 04:53:17;;;;;;;15.57;1.73;;;5.50;99.90;;;;;;5013250;28;20033;-49
2023/04/13 04:55:42;;;;;;;7.53;1.50;;;5.50;99.90;;;;;;5012710;28;20018;-51
2023/04/13 04:58:08;;;;;;;14.77;1.98;;;5.50;99.90;;;;;;5013786;28;20053;-50
2023/04/13 05:00:34;;;;;;;17.92;2.10;;;5.50;99.90;;;;;;5013687;28;20421;-48
2023/04/13 05:03:00;;;;;;;12.13;1.95;;;5.50;99.90;;;;;;5013663;28;20053;-53
2023/04/13 05:05:29;;;;;;;14.07;2.47;;;5.50;99.90;;;;;;5013299;28;20503;-52
2023/04/13 05:07:55;;;;;;;11.90;2.58;;;5.50;99.90;;;;;;5013268;28;20022;-48
2023/04/13 05:10:23;;;;;;;9.07;2.03;;;5.50;99.90;;;;;;5013424;28;20082;-55
2023/04/13 05:12:49;;;;;;;10.00;1.73;;;5.50;99.90;;;;;;5000017;28;20029;-50
2023/04/13 05:15:15;;;;;;;13.68;2.00;;;5.40;99.90;;;;;;5013402;28;20041;-47
2023/04/13 05:17:45;;;;;;;14.93;2.60;;;5.40;99.90;;;;;;5013393;28;20014;-49
2023/04/13 05:20:12;;;;;;;13.40;1.58;;;5.30;99.90;;;;;;5013259;28;20363;-52
2023/04/13 05:22:38;;;;;;;12.55;2.55;;;5.20;99.90;;;;;;5013150;28;20026;-48
2023/04/13 05:25:05;;;;;;;7.05;1.58;;;5.30;99.90;;;;;;5012806;28;20029;-50
2023/04/13 05:27:31;;;;;;;14.43;2.17;;;5.30;99.90;;;;;;5012934;28;20026;-54
2023/04/13 05:29:56;;;;;;;12.77;2.58;;;5.40;99.90;;;;;;5012506;28;20399;-51
2023/04/13 05:32:22;;;;;;;12.13;2.00;;;5.40;99.90;;;;;;5012985;28;20048;-48
2023/04/13 05:34:49;;;;;;;12.73;2.38;;;5.40;99.90;;;;;;5012455;28;20013;-52
2023/04/13 05:37:15;;;;;;;10.40;1.77;;;5.50;99.90;;;;;;5013147;28;20017;-52
2023/04/13 05:39:41;;;;;;;13.43;2.20;;;5.50;99.90;;;;;;5012750;28;20378;-52
2023/04/13 05:42:07;;;;;;;10.95;1.90;;;5.50;99.90;;;;;;5012679;28;20037;-53
2023/04/13 05:44:32;;;;;;;11.35;2.75;;;5.60;99.90;;;;;;5012623;28;20029;-49
2023/04/13 05:46:58;;;;;;;8.90;1.58;;;5.70;99.90;;;;;;5012759;28;20109;-53
2023/04/13 05:49:23;;;;;;;11.57;2.08;;;5.70;99.90;;;;;;5012676;28;20041;-48
2023/04/13 05:51:50;;;;;;;11.98;2.35;;;5.70;99.90;;;;;;5012535;28;20068;-46
2023/04/13 05:54:16;;;;;;;16.00;2.00;;;5.80;99.90;;;;;;5012501;28;20111;-50
2023/04/13 05:56:41;;;;;;;14.45;2.53;;;5.80;99.90;;;;;;5012563;28;20053;-51
2023/04/13 05:59:08;;;;;;;14.60;2.33;;;5.80;99.90;;;;;;5011203;28;20030;-51
2023/04/13 06:01:34;;;;;;;11.40;1.67;;;5.90;99.90;;;;;;5012435;28;20022;-48
2023/04/13 06:04:01;;;;;;;10.25;1.80;;;6.00;99.90;;;;;;5012224;28;20106;-54
2023/04/13 06:06:26;;;;;;;8.45;1.63;;;6.00;99.90;;;;;;5012513;28;20026;-49
2023/04/13 06:08:52;;;;;;;11.15;1.80;;;6.10;99.90;;;;;;5011830;28;20044;-49
2023/04/13 06:11:19;;;;;;;8.50;2.20;;;6.10;99.90;;;;;;5010970;28;20030;-48
2023/04/13 06:13:45;;;;;;;14.43;2.25;;;6.10;99.90;;;;;;5012510;28;20038;-55
2023/04/13 06:16:10;;;;;;;14.65;2.30;;;6.20;99.90;;;;;;5011995;28;20025;-50
2023/04/13 06:18:36;;;;;;;16.50;2.47;;;6.30;99.90;;;;;;5011915;28;20113;-51
2023/04/13 06:21:02;;;;;;;15.50;2.70;;;6.40;99.90;;;;;;5012173;28;20101;-50
2023/04/13 06:23:28;;;;;;;11.40;2.10;;;6.50;99.90;;;;;;5011601;28;20468;-52
2023/04/13 06:25:53;;;;;;;10.35;1.67;;;6.60;99.90;;;;;;5012037;28;20033;-50
2023/04/13 06:28:19;;;;;;;11.88;2.47;;;6.60;99.90;;;;;;5011789;28;20042;-51
2023/04/13 06:30:45;;;;;;;16.10;2.30;;;6.80;99.90;;;;;;5011975;28;20064;-52
2023/04/13 06:33:11;;;;;;;15.98;2.38;;;6.90;99.90;;;;;;5011634;28;20524;-51
2023/04/13 06:35:37;;;;;;;11.38;1.92;;;7.50;99.90;;;;;;5011374;28;20117;-49
2023/04/13 06:38:03;;;;;;;19.25;1.90;;;8.70;99.90;;;;;;5011339;28;20030;-48
2023/04/13 06:40:30;;;;;;;14.55;2.42;;;9.70;99.90;;;;;;5011057;28;20021;-47
2023/04/13 06:42:56;;;;;;;9.93;2.22;;;10.70;99.90;;;;;;5011245;28;20018;-47
2023/04/13 06:45:22;;;;;;;13.00;2.05;;;11.20;99.90;;;;;;5011576;28;20389;-53
2023/04/13 06:47:48;;;;;;;10.63;1.90;;;11.40;99.90;;;;;;5010973;28;20100;-48
2023/04/13 06:50:15;;;;;;;17.17;2.55;;;11.30;99.90;;;;;;5011756;28;20064;-52
2023/04/13 06:52:42;;;;;;;11.77;3.00;;;10.50;99.90;;;;;;5011588;28;20030;-48
2023/04/13 06:55:08;;;;;;;10.32;1.85;;;9.90;99.90;;;;;;5011307;28;20065;-54
2023/04/13 06:57:34;;;;;;;10.57;2.53;;;9.50;99.90;;;;;;5011035;28;20076;-51
2023/04/13 06:59:59;;;;;;;10.85;2.20;;;9.50;99.90;;;;;;5011404;28;20429;-47
2023/04/13 07:02:25;;;;;;;15.10;2.50;;;10.50;99.90;;;;;;5011268;28;20087;-49
2023/04/13 07:04:51;;;;;;;14.00;2.42;;;11.90;99.90;;;;;;5011241;28;20381;-50
2023/04/13 07:07:17;;;;;;;14.48;1.88;;;12.90;99.90;;;;;;5011396;28;20026;-51
2023/04/13 07:09:43;;;;;;;9.10;2.17;;;13.00;95.80;;;;;;5010746;28;20159;-53
2023/04/13 07:12:08;;;;;;;9.50;2.20;;;13.70;95.90;;;;;;5011156;28;20030;-53
2023/04/13 07:14:35;;;;;;;9.68;2.10;;;14.50;95.40;;;;;;5011624;28;20042;-53
2023/04/13 07:17:01;;;;;;;12.77;2.33;;;15.30;90.70;;;;;;5011052;28;20018;-51
2023/04/13 07:19:30;;;;;;;9.75;2.25;;;15.40;88.30;;;;;;5011264;28;20092;-50
2023/04/13 07:21:57;;;;;;;14.88;2.30;;;15.30;86.20;;;;;;5011278;28;20113;-49
2023/04/13 07:24:22;;;;;;;8.32;1.77;;;15.60;85.20;;;;;;5010975;28;20358;-49
2023/04/13 07:26:48;;;;;;;8.18;2.28;;;15.90;83.60;;;;;;5010772;28;20124;-49
2023/04/13 07:29:16;;;;;;;9.07;2.45;;;16.30;79.10;;;;;;5010410;28;20044;-49
2023/04/13 07:31:42;;;;;;;13.40;2.78;;;16.20;80.00;;;;;;5010843;28;20022;-49
2023/04/13 07:34:08;;;;;;;9.25;2.08;;;16.20;78.30;;;;;;5011425;28;20057;-49
2023/04/13 07:36:34;;;;;;;12.23;2.60;;;16.30;78.10;;;;;;5010563;28;20022;-51
2023/04/13 07:39:00;;;;;;;8.90;2.40;;;16.20;76.80;;;;;;5010809;28;20036;-48
2023/04/13 07:41:26;;;;;;;10.93;2.38;;;16.00;77.80;;;;;;5010829;28;20101;-48
2023/04/13 07:43:51;;;;;;;15.32;2.80;;;16.40;75.30;;;;;;5009342;28;20034;-47
2023/04/13 07:46:19;;;;;;;10.32;2.28;;;16.30;75.60;;;;;;5010424;28;20034;-50
2023/04/13 07:48:44;;;;;;;10.05;2.20;;;16.30;77.30;;;;;;5010393;28;20084;-54
2023/04/13 07:51:20;;;;;;;11.73;2.00;;;16.70;77.40;;;;;;5010785;28;20072;-47
2023/04/13 07:53:45;;;;;;;12.68;2.40;;;16.70;75.00;;;;;;5016389;28;20036;-49
2023/04/13 07:56:11;;;;;;;9.40;2.60;;;16.50;75.10;;;;;;5016780;28;20037;-47
2023/04/13 07:58:37;;;;;;;11.07;2.30;;;17.10;74.10;;;;;;5017014;28;20500;-49
2023/04/13 08:01:03;;;;;;;10.57;2.00;;;17.60;72.00;;;;;;5016943;28;20026;-49
2023/04/13 08:03:35;;;;;;;9.98;2.10;;;17.60;71.60;;;;;;5016907;28;20029;-50
2023/04/13 08:06:01;;;;;;;10.10;1.88;;;17.90;73.00;;;;;;5011084;28;20092;-49
2023/04/13 08:08:28;;;;;;;12.07;2.17;;;18.80;67.90;;;;;;5017248;28;20088;-55
2023/04/13 08:10:54;;;;;;;9.43;2.13;;;18.70;68.40;;;;;;5016790;28;20021;-55
2023/04/13 08:13:20;;;;;;;10.18;2.15;;;18.50;68.90;;;;;;5015707;28;20405;-48
2023/04/13 08:15:46;;;;;;;9.73;2.22;;;17.80;67.00;;;;;;5015953;28;20026;-55
2023/04/13 08:18:11;;;;;;;11.32;2.38;;;16.70;69.10;;;;;;5017207;28;20109;-47
2023/04/13 08:20:37;;;;;;;13.70;2.92;;;17.20;71.60;;;;;;5016867;28;20121;-47
2023/04/13 08:23:03;;;;;;;11.00;2.22;;;17.90;70.80;;;;;;5014917;28;20041;-50
2023/04/13 08:25:29;;;;;;;11.55;2.17;;;18.40;70.90;;;;;;5016421;28;20392;-50
2023/04/13 08:27:55;;;;;;;10.90;1.98;;;19.30;65.30;;;;;;5016184;28;20084;-55
2023/04/13 08:30:21;;;;;;;12.90;2.38;;;19.40;66.60;;;;;;5013327;28;20113;-47
2023/04/13 08:32:47;;;;;;;12.93;2.42;;;19.80;64.80;;;;;;5013043;28;20065;-49
2023/04/13 08:35:13;;;;;;;10.90;2.45;;;18.90;64.70;;;;;;5022744;28;20034;-53
2023/04/13 08:37:39;;;;;;;10.52;2.15;;;18.50;64.30;;;;;;5018264;28;20025;-48
2023/04/13 08:40:06;;;;;;;12.10;2.35;;;18.70;64.40;;;;;;5016673;28;20050;-53
2023/04/13 08:42:35;;;;;;;10.25;2.22;;;18.60;65.00;;;;;;5016068;28;20084;-48
2023/04/13 08:45:02;;;;;;;11.57;2.28;;;18.90;65.40;;;;;;5018917;28;20223;-47
2023/04/13 08:47:29;;;;;;;8.18;2.15;;;19.10;64.10;;;;;;5011872;28;20030;-47
2023/04/13 08:50:00;;;;;;;7.63;1.88;;;19.50;64.80;;;;;;5016503;28;20034;-51
2023/04/13 08:52:27;;;;;;;11.40;1.80;;;19.60;62.60;;;;;;5003177;28;20025;-49
2023/04/13 08:54:54;;;;;;;10.48;2.50;;;20.50;63.40;;;;;;5016548;28;20109;-47
2023/04/13 08:57:21;;;;;;;10.45;2.65;;;20.40;60.30;;;;;;5016102;28;20052;-49
2023/04/13 08:59:51;;;;;;;9.85;2.08;;;20.00;60.80;;;;;;5016420;28;20022;-54
2023/04/13 09:02:27;;;;;;;9.70;2.20;;;20.50;61.10;;;;;;5016562;28;20026;-48
2023/04/13 09:04:58;;;;;;;8.65;2.20;;;20.50;59.30;;;;;;5003813;28;20108;-50
2023/04/13 09:07:27;;;;;;;7.50;2.03;;;20.60;59.90;;;;;;5013273;28;20040;-53
2023/04/13 09:09:58;;;;;;;10.88;2.15;;;21.10;60.30;;;;;;5007752;28;20034;-45
2023/04/13 09:12:25;;;;;;;13.40;2.30;;;20.90;56.00;;;;;;5005683;28;20105;-51
2023/04/13 09:14:50;;;;;;;8.88;1.95;;;20.10;59.60;;;;;;5002958;28;20408;-47
2023/04/13 09:17:27;;;;;;;8.18;1.85;;;19.90;58.20;;;;;;5009403;28;20022;-48
2023/04/13 09:19:55;;;;;;;8.25;1.75;;;19.70;59.20;;;;;;5012944;28;20095;-46
2023/04/13 09:22:20;;;;;;;9.18;2.00;;;19.70;57.70;;;;;;5012846;28;20026;-46
2023/04/13 09:24:47;;;;;;;11.52;1.70;;;19.50;55.90;;;;;;5013103;28;20377;-47
2023/04/13 09:27:20;;;;;;;6.47;1.63;;;18.90;59.50;;;;;;5012828;28;20477;-46
2023/04/13 09:29:54;;;;;;;8.38;2.15;;;18.90;60.30;;;;;;5013043;28;20103;-49
2023/04/13 09:32:24;;;;;;;7.22;1.70;;;19.30;60.80;;;;;;5011752;28;20029;-47
2023/04/13 09:35:03;;;;;;;8.60;1.90;;;19.30;57.70;;;;;;5009930;28;20029;-53
2023/04/13 09:37:29;;;;;;;10.60;2.10;;;19.50;59.70;;;;;;5013397;28;20033;-49
2023/04/13 09:39:55;;;;;;;9.30;1.90;;;19.20;60.00;;;;;;5014213;28;20029;-48
2023/04/13 09:42:21;;;;;;;8.50;2.00;;;20.40;56.90;;;;;;5013290;28;20036;-55
2023/04/13 09:44:56;;;;;;;9.15;1.83;;;21.10;56.00;;;;;;5018248;28;20021;-47
2023/04/13 09:47:22;;;;;;;9.27;2.03;;;21.30;55.90;;;;;;5010146;28;20083;-52
2023/04/13 09:49:49;;;;;;;11.65;2.20;;;21.70;52.60;;;;;;5014003;28;20030;-48
2023/04/13 09:52:21;;;;;;;8.68;1.63;;;21.70;54.20;;;;;;5013577;28;20148;-47
2023/04/13 09:55:00;;;;;;;8.82;2.38;;;21.70;53.70;;;;;;5009895;28;20030;-51
2023/04/13 09:57:27;;;;;;;7.53;1.58;;;21.80;53.50;;;;;;5012171;28;20046;-52
2023/04/13 09:59:53;;;;;;;8.68;1.80;;;21.30;53.80;;;;;;5012358;28;20034;-47
2023/04/13 10:02:20;;;;;;;11.52;2.33;;;21.40;53.00;;;;;;5012190;28;20135;-51
2023/04/13 10:04:46;;;;;;;6.03;1.88;;;21.80;52.10;;;;;;5010993;28;20026;-49
2023/04/13 10:07:12;;;;;;;7.85;1.70;;;21.90;53.10;;;;;;5011365;28;20113;-53
2023/04/13 10:09:38;;;;;;;8.48;2.13;;;21.90;50.40;;;;;;5012367;28;20032;-48
2023/04/13 10:12:05;;;;;;;9.00;1.63;;;22.20;53.10;;;;;;5011293;28;20018;-50
2023/04/13 10:14:38;;;;;;;5.75;1.55;;;22.80;51.40;;;;;;5010323;28;20531;-52
2023/04/13 10:17:26;;;;;;;9.57;2.00;;;20.90;50.40;;;;;;5009958;28;20088;-49
2023/04/13 10:19:54;;;;;;;6.45;1.80;;;20.50;54.00;;;;;;4999397;28;20092;-47
2023/04/13 10:22:22;;;;;;;8.52;2.00;;;19.80;54.40;;;;;;5010181;28;20058;-50
2023/04/13 10:24:49;;;;;;;5.85;1.60;;;18.90;59.30;;;;;;4997425;28;20057;-52
2023/04/13 10:27:19;;;;;;;9.95;1.90;;;19.50;57.90;;;;;;5011029;28;20030;-49
2023/04/13 10:29:46;;;;;;;;;;;20.50;59.70;;;;;;5012287;28;20037;-47
2023/04/13 10:32:26;;;;;;;10.50;1.90;;;20.60;54.10;;;;;;5011586;28;19967;-47
2023/04/13 10:34:53;;;;;;;7.28;1.50;;;20.20;54.40;;;;;;5011834;28;20026;-47
2023/04/13 10:37:22;;;;;;;8.90;1.67;;;21.00;51.90;;;;;;5011851;28;20473;-49
2023/04/13 10:39:48;;;;;;;10.95;1.92;;;20.70;51.70;;;;;;5011790;28;20100;-50
2023/04/13 10:42:14;;;;;;;10.45;2.00;;;19.20;54.10;;;;;;5011622;28;20030;-51
2023/04/13 10:44:47;;;;;;;7.00;1.70;;;18.20;57.90;;;;;;5011480;28;20026;-56
2023/04/13 10:47:15;;;;;;;9.50;1.83;;;17.60;56.40;;;;;;5011062;28;20072;-52
2023/04/13 10:49:42;;;;;;;8.88;1.90;;;17.20;59.10;;;;;;5007018;28;20046;-53
2023/04/13 10:52:10;;;;;;;8.65;1.77;;;16.60;59.60;;;;;;5011922;28;20376;-47
2023/04/13 10:54:36;;;;;;;9.02;1.98;;;16.50;58.70;;;;;;5011799;28;20033;-50
2023/04/13 10:57:05;;;;;;;5.75;1.58;;;17.40;60.60;;;;;;5011562;28;20046;-50
2023/04/13 10:59:55;;;;;;;9.63;1.80;;;17.80;61.20;;;;;;5010020;28;20030;-52
2023/04/13 11:02:22;;;;;;;6.53;1.80;;;17.40;60.20;;;;;;5011650;28;20081;-48
2023/04/13 11:04:48;;;;;;;8.05;2.00;;;16.30;60.40;;;;;;4999698;28;20049;-53
2023/04/13 11:07:18;;;;;;;9.27;1.63;;;15.20;62.50;;;;;;5001647;28;20037;-47
2023/04/13 11:09:44;;;;;;;;;;;14.30;64.90;;;;;;5011634;28;20050;-55
2023/04/13 11:12:13;;;;;;;10.93;1.70;;;13.70;65.60;;;;;;5011222;28;19913;-46
2023/04/13 11:14:39;;;;;;;10.05;2.22;;;13.30;68.90;;;;;;5010865;28;20084;-54
2023/04/13 11:17:06;;;;;;;8.00;1.30;;;13.10;67.40;;;;;;5011360;28;20029;-48
2023/04/13 11:19:33;;;;;;;5.80;1.27;;;13.00;68.20;;;;;;5011356;28;20018;-50
2023/04/13 11:22:00;;;;;;;8.10;1.55;;;12.90;69.80;;;;;;5009752;28;20334;-46
2023/04/13 11:24:27;;;;;;;11.98;1.98;;;12.60;70.90;;;;;;5009857;28;20018;-45
2023/04/13 11:26:53;;;;;;;8.02;2.08;;;13.50;74.00;;;;;;5010252;28;20034;-50
2023/04/13 11:29:20;;;;;;;7.20;1.67;;;16.20;71.00;;;;;;5010440;28;20045;-54
2023/04/13 11:31:46;;;;;;;9.60;1.80;;;16.80;63.90;;;;;;5010866;28;20029;-57
2023/04/13 11:34:21;;;;;;;10.77;1.63;;;17.90;61.80;;;;;;5010743;28;20137;-55
2023/04/13 11:36:48;;;;;;;8.40;1.77;;;16.90;62.70;;;;;;5010853;28;20026;-57
2023/04/13 11:39:14;;;;;;;9.35;1.73;;;16.00;64.60;;;;;;4997566;28;20030;-52
2023/04/13 11:41:41;;;;;;;7.43;1.40;;;15.10;66.40;;;;;;5006541;28;20040;-51
2023/04/13 11:44:06;;;;;;;9.35;1.67;;;14.90;68.80;;;;;;5006355;28;20053;-50
2023/04/13 11:46:33;;;;;;;6.03;1.52;;;14.70;69.10;;;;;;4994261;28;20050;-56
2023/04/13 11:48:59;;;;;;;6.75;1.60;;;16.00;68.30;;;;;;5009692;28;20037;-53
2023/04/13 11:51:25;;;;;;;10.90;1.70;;;16.60;67.80;;;;;;5010804;28;20022;-52
2023/04/13 11:53:52;;;;;;;11.52;1.75;;;17.00;67.40;;;;;;5010105;28;20330;-47
2023/04/13 11:56:18;;;;;;;7.03;1.50;;;17.00;65.70;;;;;;5009899;28;20893;-45
2023/04/13 11:58:45;;;;;;;7.70;1.75;;;17.70;64.80;;;;;;5010410;28;20076;-43
2023/04/13 12:01:14;;;;;;;8.77;1.40;;;17.70;63.00;;;;;;5010455;28;20441;-54
2023/04/13 12:03:39;;;;;;;7.40;1.70;;;18.10;62.90;;;;;;5010236;28;20503;-49
2023/04/13 12:06:06;;;;;;;8.68;1.77;;;18.80;62.70;;;;;;5008153;28;20026;-47
2023/04/13 12:08:32;;;;;;;7.07;1.50;;;19.00;61.70;;;;;;5001942;28;20045;-42
2023/04/13 12:11:04;;;;;;;7.65;1.75;;;18.90;63.70;;;;;;5010328;28;20056;-43
2023/04/13 12:13:52;;;;;;;6.57;1.40;;;17.70;63.40;;;;;;5005266;28;20025;-43
2023/04/13 12:16:28;;;;;;;6.75;1.55;;;18.10;64.60;;;;;;5010633;28;20033;-51
2023/04/13 12:18:54;;;;;;;6.43;1.25;;;18.80;63.10;;;;;;5010189;28;20497;-49
2023/04/13 12:21:20;;;;;;;7.82;1.50;;;19.50;60.60;;;;;;5010365;28;20114;-54
2023/04/13 12:23:57;;;;;;;12.93;2.22;;;18.80;61.80;;;;;;5010779;28;20022;-56
2023/04/13 12:26:36;;;;;;;9.75;1.48;;;17.40;63.00;;;;;;5010335;28;20026;-54
2023/04/13 12:29:05;;;;;;;7.13;1.25;;;15.70;67.90;;;;;;5010467;28;20037;-50
2023/04/13 12:31:38;;;;;;;9.30;1.50;;;14.50;69.80;;;;;;5010305;28;20026;-55
2023/04/13 12:34:05;;;;;;;14.35;2.08;;;13.40;75.90;;;;;;5010184;28;20407;-56
2023/04/13 12:36:34;;;;;;;9.48;1.80;;;12.60;83.10;;;;;;5009978;28;20045;-56
2023/04/13 12:38:59;;;;;;;14.95;2.17;;;12.20;90.10;;;;;;5002357;28;20106;-51
2023/04/13 12:41:25;;;;;;;10.00;1.63;;;11.90;94.00;;;;;;4997892;28;20046;-52
2023/04/13 12:43:51;;;;;;;13.90;2.08;;;11.50;96.40;;;;;;5000162;28;20057;-48
2023/04/13 12:46:17;;;;;;;11.35;1.88;;;11.20;99.20;;;;;;5008421;28;20125;-52
2023/04/13 12:48:43;;;;;;;10.88;2.53;;;10.90;99.90;;;;;;5012128;28;20552;-56